TimeAKDT,TemperatureF,Dew PointF,Humidity,Sea Level PressureIn,VisibilityMPH,Wind Direction,Wind SpeedMPH,Gust SpeedMPH,PrecipitationIn,Events,Conditions,WindDirDegrees,DateUTC
12:53 AM,28.0,21.0,75,29.83,10.0,Calm,Calm,-,N/A,,Scattered Clouds,0,2013-10-24 08:53:00
1:53 AM,28.0,21.0,75,29.82,10.0,NNW,4.6,-,N/A,,Scattered Clouds,340,2013-10-24 09:53:00
2:53 AM,28.9,21.0,72,29.83,10.0,North,4.6,-,N/A,,Mostly Cloudy,350,2013-10-24 10:53:00
3:53 AM,28.9,21.9,75,29.82,10.0,Calm,Calm,-,N/A,,Mostly Cloudy,0,2013-10-24 11:53:00
4:53 AM,28.9,21.0,72,29.81,10.0,Calm,Calm,-,N/A,,Mostly Cloudy,0,2013-10-24 12:53:00
5:53 AM,28.9,21.0,72,29.82,10.0,Calm,Calm,-,N/A,,Mostly Cloudy,0,2013-10-24 13:53:00
6:53 AM,30.9,23.0,72,29.83,10.0,NNE,3.5,-,N/A,,Clear,20,2013-10-24 14:53:00
7:53 AM,32.0,25.0,75,29.80,10.0,NE,4.6,-,N/A,,Overcast,40,2013-10-24 15:53:00
8:53 AM,32.0,24.1,73,29.83,10.0,SSW,3.5,-,N/A,,Overcast,200,2013-10-24 16:53:00
9:53 AM,33.1,25.0,72,29.82,10.0,Variable,3.5,-,N/A,,Overcast,0,2013-10-24 17:53:00
10:53 AM,34.0,24.1,67,29.78,10.0,NNW,9.2,-,N/A,,Overcast,340,2013-10-24 18:53:00
11:53 AM,34.0,25.0,70,29.78,10.0,NW,9.2,-,N/A,,Overcast,320,2013-10-24 19:53:00
12:53 PM,35.1,24.1,64,29.78,10.0,SW,3.5,-,N/A,,Overcast,220,2013-10-24 20:53:00
1:53 PM,35.1,23.0,61,29.76,10.0,West,5.8,-,N/A,,Overcast,280,2013-10-24 21:53:00
2:53 PM,36.0,24.1,62,29.75,10.0,West,10.4,-,N/A,,Mostly Cloudy,270,2013-10-24 22:53:00
3:53 PM,36.0,25.0,64,29.72,10.0,WNW,5.8,-,N/A,,Mostly Cloudy,300,2013-10-24 23:53:00
4:53 PM,37.0,26.1,65,29.68,10.0,NNW,5.8,-,N/A,,Mostly Cloudy,330,2013-10-25 00:53:00
5:53 PM,36.0,27.0,70,29.69,10.0,West,5.8,-,N/A,,Mostly Cloudy,280,2013-10-25 01:53:00
6:53 PM,36.0,28.9,76,29.69,10.0,North,8.1,-,N/A,,Overcast,350,2013-10-25 02:53:00
7:53 PM,36.0,28.9,76,29.68,10.0,Calm,Calm,-,N/A,,Overcast,0,2013-10-25 03:53:00
8:53 PM,36.0,28.9,76,29.69,10.0,West,5.8,-,N/A,,Overcast,270,2013-10-25 04:53:00
9:53 PM,37.0,30.0,76,29.71,10.0,Calm,Calm,-,N/A,,Overcast,0,2013-10-25 05:53:00
10:53 PM,36.0,30.0,79,29.71,10.0,North,5.8,-,0.00,,Overcast,10,2013-10-25 06:53:00
11:53 PM,37.0,30.0,76,29.73,10.0,NNW,5.8,-,N/A,,Overcast,330,2013-10-25 07:53:00